Terminal Aerodrome Forecast
Issued by NWS Cleveland, OH

Home | Current Version | Previous Version | Text Only | Print | Product List | Glossary On
Versions: 1 2 3 4 5 6 7 8 9 10 11 12 13 14 15 16
000
FTUS41 KCLE 280600 AAA
TAFERI
TAF AMD
KERI 280627Z 2806/2906 27010G18KT 3SM -SHRA BR BKN008 OVC018
     FM281100 27010KT P6SM OVC015
      TEMPO 2811/2813 4SM -SHSNPL
     FM281400 30010KT P6SM OVC018
     FM281700 30010KT P6SM OVC025
     FM282200 29006KT P6SM BKN035=

USA.gov is the U.S. government's official web portal to all federal, state and local government web resources and services.